Unlu-5 — TCON5 — position and weather

sailwx.info

Track history (hours):
 
Tides and Currents Weather Stations Pressure Air Temp Water Temp Dewpoint Dewpoint Depression Visibility Wind Speed Wind Dir Waves Ship Positions

Unlu-5

Last reported at 2017-Oct-13 07:15 UTC. Time now 2017-Oct-17 06:30 UTC.
Position N 44°05' E 014°03'.

Length 99 m; draft 3.5 m.

Type: Ship. MMSI: 271000854.

Date/timePositionNaut miles runAvg speedWind from/ knotsBaromVisibWave heightAir tempDewpointWater temp
2017-Oct-13 07:15N 44°05' E 014°03'11 9.0
2017-Oct-13 06:04N 44°13' E 013°54'1 8.9
2017-Oct-13 06:00N 44°14' E 013°54'5 9.0
2017-Oct-13 05:30N 44°18' E 013°50'5 8.9
2017-Oct-13 05:00N 44°21' E 013°47'4 8.8
2017-Oct-13 04:30N 44°25' E 013°44'4 8.7
2017-Oct-13 04:00N 44°29' E 013°40'4 8.7
2017-Oct-13 03:30N 44°32' E 013°37'4 8.7
2017-Oct-13 03:00N 44°36' E 013°34'4 8.6
2017-Oct-13 02:30N 44°40' E 013°31'4 8.6
2017-Oct-13 02:00N 44°43' E 013°27'4 8.4
2017-Oct-13 01:30N 44°47' E 013°24'4 8.5
2017-Oct-13 01:00N 44°50' E 013°21'4 8.3
2017-Oct-13 00:30N 44°54' E 013°18'4 8.2
2017-Oct-13 00:00N 44°57' E 013°15'4 8.5
2017-Oct-12 23:30N 45°01' E 013°11'5 8.7
2017-Oct-12 22:55N 45°05' E 013°08'3 8.6
2017-Oct-12 22:30N 45°08' E 013°05'4 8.4
2017-Oct-12 22:00N 45°12' E 013°04'4 8.4
2017-Oct-12 21:30N 45°17' E 013°03'4 8.5
2017-Oct-12 21:00N 45°21' E 013°03'4 7.7
2017-Oct-12 20:30N 45°24' E 013°06'4 8.6
2017-Oct-12 20:00N 45°26' E 013°11'4 8.6
2017-Oct-12 19:30N 45°28' E 013°16'4 8.8
2017-Oct-12 19:00N 45°33' E 013°18'4 8.6
2017-Oct-12 18:30N 45°35' E 013°23'4 8.7
2017-Oct-12 18:00N 45°36' E 013°29'4 8.7
2017-Oct-12 17:30N 45°38' E 013°35'4 8.5
2017-Oct-12 17:00N 45°35' E 013°40'4 7.2
2017-Oct-12 16:30N 45°33' E 013°44'0 0.1
2017-Oct-12 16:00N 45°33' E 013°44'0 0.0
2017-Oct-12 15:30N 45°33' E 013°44'0 0.0
2017-Oct-12 15:00N 45°33' E 013°44'0 0.0
2017-Oct-12 14:24N 45°33' E 013°44'0 0.0
2017-Oct-12 14:00N 45°33' E 013°44'0 0.0
2017-Oct-12 13:30N 45°33' E 013°44'0 0.0
2017-Oct-12 13:00N 45°33' E 013°44'0 0.0
2017-Oct-12 12:27N 45°33' E 013°44'0 0.1
2017-Oct-12 11:48N 45°34' E 013°44'0 0.2
2017-Oct-12 11:30N 45°33' E 013°44'0 0.0
2017-Oct-12 10:54N 45°33' E 013°44'0 0.0
2017-Oct-12 10:30N 45°33' E 013°44'0 0.0
2017-Oct-12 10:00N 45°33' E 013°44'0 0.0
2017-Oct-12 09:30N 45°33' E 013°44'0 0.0
2017-Oct-12 08:57N 45°33' E 013°44'0 0.0
2017-Oct-12 08:30N 45°33' E 013°44'0 0.0
2017-Oct-12 08:00N 45°33' E 013°44'0 0.0
2017-Oct-12 07:30N 45°33' E 013°44'0 0.0
2017-Oct-12 06:54N 45°33' E 013°44'0 0.0
2017-Oct-12 06:30N 45°33' E 013°44'0 0.0
2017-Oct-12 06:00N 45°33' E 013°44'0 0.0
2017-Oct-12 05:27N 45°33' E 013°44'0 0.0
2017-Oct-12 05:00N 45°33' E 013°44'0 0.0
2017-Oct-12 04:27N 45°33' E 013°44'0 0.0
2017-Oct-12 04:00N 45°33' E 013°44'0 0.0
2017-Oct-12 03:30N 45°33' E 013°44'0 0.0
2017-Oct-12 03:00N 45°33' E 013°44'0 0.0
2017-Oct-12 02:27N 45°33' E 013°44'0 0.0
2017-Oct-12 01:57N 45°33' E 013°44'0 0.0
2017-Oct-12 01:24N 45°33' E 013°44'0 0.0
2017-Oct-12 01:00N 45°33' E 013°44'0 0.0
2017-Oct-12 00:30N 45°33' E 013°44'0 0.0
2017-Oct-12 00:00N 45°33' E 013°44'0 0.0
2017-Oct-11 23:21N 45°33' E 013°44'0 0.0
2017-Oct-11 22:48N 45°33' E 013°44'0 0.0
2017-Oct-11 22:30N 45°33' E 013°44'0 0.0
2017-Oct-11 21:57N 45°33' E 013°44'0 0.0
2017-Oct-11 21:30N 45°33' E 013°44'0 0.0
2017-Oct-11 21:00N 45°33' E 013°44'0 0.0
2017-Oct-11 20:30N 45°33' E 013°44'0 0.0
2017-Oct-11 19:57N 45°33' E 013°44'0 0.0
2017-Oct-11 19:30N 45°33' E 013°44'0 0.0
2017-Oct-11 19:00N 45°33' E 013°44'0 0.0
2017-Oct-11 18:30N 45°33' E 013°44'0 0.0
2017-Oct-11 17:57N 45°33' E 013°44'0 0.0
2017-Oct-11 17:30N 45°33' E 013°44'0 0.0
2017-Oct-11 17:00N 45°33' E 013°44'27 1.6
2017-Oct-11 00:00N 45°16' E 013°15'3 6.7
2017-Oct-10 23:30N 45°13' E 013°16'3 6.8
2017-Oct-10 23:00N 45°10' E 013°18'3 6.9
2017-Oct-10 22:30N 45°07' E 013°20'3 7.0
2017-Oct-10 22:00N 45°03' E 013°22'3 6.9
2017-Oct-10 21:30N 45°00' E 013°24'3 6.8
2017-Oct-10 21:00N 44°57' E 013°26'3 6.6
2017-Oct-10 20:30N 44°54' E 013°29'3 6.7
2017-Oct-10 20:00N 44°52' E 013°32'3 6.9
2017-Oct-10 19:30N 44°49' E 013°35'3 6.6
2017-Oct-10 19:00N 44°47' E 013°38'2 4.9
2017-Oct-10 18:30N 44°45' E 013°40'3 6.9
2017-Oct-10 18:00N 44°42' E 013°42'4 7.1
2017-Oct-10 17:30N 44°39' E 013°45'4 7.1
2017-Oct-10 17:00N 44°36' E 013°48'3 6.7
2017-Oct-10 16:30N 44°33' E 013°50'3 6.9
2017-Oct-10 16:00N 44°30' E 013°53'3 7.0
2017-Oct-10 15:30N 44°27' E 013°55'4 6.9
2017-Oct-10 14:59N 44°24' E 013°57'7 6.8
2017-Oct-10 14:00N 44°18' E 014°02'4 6.6
2017-Oct-10 13:29N 44°15' E 014°04'11 6.6
2017-Oct-10 11:48N 44°06' E 014°14'2 6.5
2017-Oct-10 11:29N 44°05' E 014°16'  
Track history (hours):
 
Tides and Currents Weather Stations Pressure Air Temp Water Temp Dewpoint Dewpoint Depression Visibility Wind Speed Wind Dir Waves Ship Positions

Unlu-5

Last reported at 2017-Oct-13 07:15 UTC. Time now 2017-Oct-17 06:30 UTC.
Position N 44°05' E 014°03'.

Length 99 m; draft 3.5 m.

Type: Ship. MMSI: 271000854.

Date/timePositionNaut miles runAvg speedWind from/ knotsBaromVisibWave heightAir tempDewpointWater temp
2017-Oct-13 07:15N 44°05' E 014°03'11 9.0
2017-Oct-13 06:04N 44°13' E 013°54'1 8.9
2017-Oct-13 06:00N 44°14' E 013°54'5 9.0
2017-Oct-13 05:30N 44°18' E 013°50'5 8.9
2017-Oct-13 05:00N 44°21' E 013°47'4 8.8
2017-Oct-13 04:30N 44°25' E 013°44'4 8.7
2017-Oct-13 04:00N 44°29' E 013°40'4 8.7
2017-Oct-13 03:30N 44°32' E 013°37'4 8.7
2017-Oct-13 03:00N 44°36' E 013°34'4 8.6
2017-Oct-13 02:30N 44°40' E 013°31'4 8.6
2017-Oct-13 02:00N 44°43' E 013°27'4 8.4
2017-Oct-13 01:30N 44°47' E 013°24'4 8.5
2017-Oct-13 01:00N 44°50' E 013°21'4 8.3
2017-Oct-13 00:30N 44°54' E 013°18'4 8.2
2017-Oct-13 00:00N 44°57' E 013°15'4 8.5
2017-Oct-12 23:30N 45°01' E 013°11'5 8.7
2017-Oct-12 22:55N 45°05' E 013°08'3 8.6
2017-Oct-12 22:30N 45°08' E 013°05'4 8.4
2017-Oct-12 22:00N 45°12' E 013°04'4 8.4
2017-Oct-12 21:30N 45°17' E 013°03'4 8.5
2017-Oct-12 21:00N 45°21' E 013°03'4 7.7
2017-Oct-12 20:30N 45°24' E 013°06'4 8.6
2017-Oct-12 20:00N 45°26' E 013°11'4 8.6
2017-Oct-12 19:30N 45°28' E 013°16'4 8.8
2017-Oct-12 19:00N 45°33' E 013°18'4 8.6
2017-Oct-12 18:30N 45°35' E 013°23'4 8.7
2017-Oct-12 18:00N 45°36' E 013°29'4 8.7
2017-Oct-12 17:30N 45°38' E 013°35'4 8.5
2017-Oct-12 17:00N 45°35' E 013°40'4 7.2
2017-Oct-12 16:30N 45°33' E 013°44'0 0.1
2017-Oct-12 16:00N 45°33' E 013°44'0 0.0
2017-Oct-12 15:30N 45°33' E 013°44'0 0.0
2017-Oct-12 15:00N 45°33' E 013°44'0 0.0
2017-Oct-12 14:24N 45°33' E 013°44'0 0.0
2017-Oct-12 14:00N 45°33' E 013°44'0 0.0
2017-Oct-12 13:30N 45°33' E 013°44'0 0.0
2017-Oct-12 13:00N 45°33' E 013°44'0 0.0
2017-Oct-12 12:27N 45°33' E 013°44'0 0.1
2017-Oct-12 11:48N 45°34' E 013°44'0 0.2
2017-Oct-12 11:30N 45°33' E 013°44'0 0.0
2017-Oct-12 10:54N 45°33' E 013°44'0 0.0
2017-Oct-12 10:30N 45°33' E 013°44'0 0.0
2017-Oct-12 10:00N 45°33' E 013°44'0 0.0
2017-Oct-12 09:30N 45°33' E 013°44'0 0.0
2017-Oct-12 08:57N 45°33' E 013°44'0 0.0
2017-Oct-12 08:30N 45°33' E 013°44'0 0.0
2017-Oct-12 08:00N 45°33' E 013°44'0 0.0
2017-Oct-12 07:30N 45°33' E 013°44'0 0.0
2017-Oct-12 06:54N 45°33' E 013°44'0 0.0
2017-Oct-12 06:30N 45°33' E 013°44'0 0.0
2017-Oct-12 06:00N 45°33' E 013°44'0 0.0
2017-Oct-12 05:27N 45°33' E 013°44'0 0.0
2017-Oct-12 05:00N 45°33' E 013°44'0 0.0
2017-Oct-12 04:27N 45°33' E 013°44'0 0.0
2017-Oct-12 04:00N 45°33' E 013°44'0 0.0
2017-Oct-12 03:30N 45°33' E 013°44'0 0.0
2017-Oct-12 03:00N 45°33' E 013°44'0 0.0
2017-Oct-12 02:27N 45°33' E 013°44'0 0.0
2017-Oct-12 01:57N 45°33' E 013°44'0 0.0
2017-Oct-12 01:24N 45°33' E 013°44'0 0.0
2017-Oct-12 01:00N 45°33' E 013°44'0 0.0
2017-Oct-12 00:30N 45°33' E 013°44'0 0.0
2017-Oct-12 00:00N 45°33' E 013°44'0 0.0
2017-Oct-11 23:21N 45°33' E 013°44'0 0.0
2017-Oct-11 22:48N 45°33' E 013°44'0 0.0
2017-Oct-11 22:30N 45°33' E 013°44'0 0.0
2017-Oct-11 21:57N 45°33' E 013°44'0 0.0
2017-Oct-11 21:30N 45°33' E 013°44'0 0.0
2017-Oct-11 21:00N 45°33' E 013°44'0 0.0
2017-Oct-11 20:30N 45°33' E 013°44'0 0.0
2017-Oct-11 19:57N 45°33' E 013°44'0 0.0
2017-Oct-11 19:30N 45°33' E 013°44'0 0.0
2017-Oct-11 19:00N 45°33' E 013°44'0 0.0
2017-Oct-11 18:30N 45°33' E 013°44'0 0.0
2017-Oct-11 17:57N 45°33' E 013°44'0 0.0
2017-Oct-11 17:30N 45°33' E 013°44'0 0.0
2017-Oct-11 17:00N 45°33' E 013°44'27 1.6
2017-Oct-11 00:00N 45°16' E 013°15'3 6.7
2017-Oct-10 23:30N 45°13' E 013°16'3 6.8
2017-Oct-10 23:00N 45°10' E 013°18'3 6.9
2017-Oct-10 22:30N 45°07' E 013°20'3 7.0
2017-Oct-10 22:00N 45°03' E 013°22'3 6.9
2017-Oct-10 21:30N 45°00' E 013°24'3 6.8
2017-Oct-10 21:00N 44°57' E 013°26'3 6.6
2017-Oct-10 20:30N 44°54' E 013°29'3 6.7
2017-Oct-10 20:00N 44°52' E 013°32'3 6.9
2017-Oct-10 19:30N 44°49' E 013°35'3 6.6
2017-Oct-10 19:00N 44°47' E 013°38'2 4.9
2017-Oct-10 18:30N 44°45' E 013°40'3 6.9
2017-Oct-10 18:00N 44°42' E 013°42'4 7.1
2017-Oct-10 17:30N 44°39' E 013°45'4 7.1
2017-Oct-10 17:00N 44°36' E 013°48'3 6.7
2017-Oct-10 16:30N 44°33' E 013°50'3 6.9
2017-Oct-10 16:00N 44°30' E 013°53'3 7.0
2017-Oct-10 15:30N 44°27' E 013°55'4 6.9
2017-Oct-10 14:59N 44°24' E 013°57'7 6.8
2017-Oct-10 14:00N 44°18' E 014°02'4 6.6
2017-Oct-10 13:29N 44°15' E 014°04'11 6.6
2017-Oct-10 11:48N 44°06' E 014°14'2 6.5
2017-Oct-10 11:29N 44°05' E 014°16'  

Dump ship's entire track history